sensor_id;sensor_type;location;lat;lon;timestamp;pressure;altitude;pressure_sealevel;temperature;humidity
39275;BME280;24980;48.874;2.332;2022-09-13T00:01:31;100490.23;;;28.41;44.01
39275;BME280;24980;48.874;2.332;2022-09-13T00:04:01;100486.52;;;28.40;44.03
39275;BME280;24980;48.874;2.332;2022-09-13T00:06:32;100485.86;;;28.40;44.05
39275;BME280;24980;48.874;2.332;2022-09-13T00:09:02;100481.44;;;28.38;44.07
39275;BME280;24980;48.874;2.332;2022-09-13T00:11:32;100486.14;;;28.38;44.09
39275;BME280;24980;48.874;2.332;2022-09-13T00:14:02;100486.38;;;28.36;44.10
39275;BME280;24980;48.874;2.332;2022-09-13T00:16:35;100494.28;;;28.35;44.11
39275;BME280;24980;48.874;2.332;2022-09-13T00:19:03;100499.04;;;28.33;44.10
39275;BME280;24980;48.874;2.332;2022-09-13T00:21:32;100499.81;;;28.33;44.09
39275;BME280;24980;48.874;2.332;2022-09-13T00:24:03;100497.86;;;28.31;44.06
39275;BME280;24980;48.874;2.332;2022-09-13T00:26:36;100494.23;;;28.30;44.05
39275;BME280;24980;48.874;2.332;2022-09-13T00:29:06;100492.61;;;28.30;44.02
39275;BME280;24980;48.874;2.332;2022-09-13T00:31:34;100482.56;;;28.29;44.01
39275;BME280;24980;48.874;2.332;2022-09-13T00:34:04;100478.50;;;28.28;43.99
39275;BME280;24980;48.874;2.332;2022-09-13T00:36:34;100480.73;;;28.27;43.96
39275;BME280;24980;48.874;2.332;2022-09-13T00:39:06;100473.11;;;28.26;43.95
39275;BME280;24980;48.874;2.332;2022-09-13T00:41:35;100466.17;;;28.25;43.93
39275;BME280;24980;48.874;2.332;2022-09-13T00:46:47;100453.19;;;28.24;43.89
39275;BME280;24980;48.874;2.332;2022-09-13T00:49:20;100449.55;;;28.23;43.88
39275;BME280;24980;48.874;2.332;2022-09-13T00:51:37;100451.06;;;28.22;43.85
39275;BME280;24980;48.874;2.332;2022-09-13T00:54:12;100452.17;;;28.22;43.84
39275;BME280;24980;48.874;2.332;2022-09-13T00:56:45;100453.84;;;28.21;43.82
39275;BME280;24980;48.874;2.332;2022-09-13T01:01:46;100458.62;;;28.19;43.80
39275;BME280;24980;48.874;2.332;2022-09-13T01:04:11;100457.47;;;28.18;43.79
39275;BME280;24980;48.874;2.332;2022-09-13T01:06:41;100455.69;;;28.18;43.77
39275;BME280;24980;48.874;2.332;2022-09-13T01:09:12;100454.62;;;28.16;43.75
39275;BME280;24980;48.874;2.332;2022-09-13T01:11:49;100448.68;;;28.16;43.74
39275;BME280;24980;48.874;2.332;2022-09-13T01:14:13;100444.39;;;28.15;43.74
39275;BME280;24980;48.874;2.332;2022-09-13T01:16:46;100440.15;;;28.15;43.74
39275;BME280;24980;48.874;2.332;2022-09-13T01:19:15;100435.24;;;28.14;43.76
39275;BME280;24980;48.874;2.332;2022-09-13T01:27:20;100427.73;;;28.12;43.77
39275;BME280;24980;48.874;2.332;2022-09-13T01:34:33;100427.47;;;28.10;43.74
39275;BME280;24980;48.874;2.332;2022-09-13T01:37:22;100425.68;;;28.09;43.73
39275;BME280;24980;48.874;2.332;2022-09-13T01:39:30;100422.80;;;28.08;43.71
39275;BME280;24980;48.874;2.332;2022-09-13T01:42:00;100422.23;;;28.08;43.70
39275;BME280;24980;48.874;2.332;2022-09-13T01:47:16;100417.20;;;28.06;43.69
39275;BME280;24980;48.874;2.332;2022-09-13T01:49:42;100413.89;;;28.05;43.68
39275;BME280;24980;48.874;2.332;2022-09-13T01:51:55;100413.23;;;28.04;43.66
39275;BME280;24980;48.874;2.332;2022-09-13T01:57:03;100404.46;;;28.03;43.66
39275;BME280;24980;48.874;2.332;2022-09-13T01:59:26;100404.64;;;28.02;43.65
39275;BME280;24980;48.874;2.332;2022-09-13T02:01:59;100400.86;;;28.01;43.65
39275;BME280;24980;48.874;2.332;2022-09-13T02:04:27;100401.47;;;28.01;43.65
39275;BME280;24980;48.874;2.332;2022-09-13T02:07:20;100402.91;;;27.99;43.66
39275;BME280;24980;48.874;2.332;2022-09-13T02:09:25;100402.16;;;27.99;43.69
39275;BME280;24980;48.874;2.332;2022-09-13T02:11:59;100401.15;;;27.98;43.73
39275;BME280;24980;48.874;2.332;2022-09-13T02:14:31;100396.06;;;27.98;43.77
39275;BME280;24980;48.874;2.332;2022-09-13T02:17:08;100400.47;;;27.98;43.82
39275;BME280;24980;48.874;2.332;2022-09-13T02:19:38;100397.98;;;27.99;43.85
39275;BME280;24980;48.874;2.332;2022-09-13T02:21:59;100393.14;;;27.98;43.90
39275;BME280;24980;48.874;2.332;2022-09-13T02:24:32;100391.36;;;27.98;43.93
39275;BME280;24980;48.874;2.332;2022-09-13T02:27:00;100386.22;;;27.97;43.95
39275;BME280;24980;48.874;2.332;2022-09-13T02:29:29;100387.12;;;27.98;43.96
39275;BME280;24980;48.874;2.332;2022-09-13T02:32:06;100384.94;;;27.97;43.95
39275;BME280;24980;48.874;2.332;2022-09-13T02:34:37;100381.70;;;27.97;43.93
39275;BME280;24980;48.874;2.332;2022-09-13T02:37:00;100380.02;;;27.95;43.89
39275;BME280;24980;48.874;2.332;2022-09-13T02:39:31;100373.56;;;27.94;43.86
39275;BME280;24980;48.874;2.332;2022-09-13T02:42:13;100371.84;;;27.93;43.82
39275;BME280;24980;48.874;2.332;2022-09-13T02:44:36;100371.55;;;27.92;43.79
39275;BME280;24980;48.874;2.332;2022-09-13T02:49:54;100369.02;;;27.90;43.73
39275;BME280;24980;48.874;2.332;2022-09-13T02:52:18;100368.11;;;27.89;43.70
39275;BME280;24980;48.874;2.332;2022-09-13T02:54:42;100363.41;;;27.87;43.68
39275;BME280;24980;48.874;2.332;2022-09-13T02:57:08;100360.91;;;27.87;43.66
39275;BME280;24980;48.874;2.332;2022-09-13T02:59:33;100359.48;;;27.86;43.65
39275;BME280;24980;48.874;2.332;2022-09-13T03:02:06;100358.58;;;27.85;43.62
39275;BME280;24980;48.874;2.332;2022-09-13T03:04:34;100363.11;;;27.84;43.61
39275;BME280;24980;48.874;2.332;2022-09-13T03:07:07;100360.80;;;27.83;43.61
39275;BME280;24980;48.874;2.332;2022-09-13T03:09:34;100359.47;;;27.82;43.60
39275;BME280;24980;48.874;2.332;2022-09-13T03:14:41;100351.25;;;27.81;43.58
39275;BME280;24980;48.874;2.332;2022-09-13T03:17:14;100350.22;;;27.80;43.58
39275;BME280;24980;48.874;2.332;2022-09-13T03:27:44;100350.27;;;27.77;43.57
39275;BME280;24980;48.874;2.332;2022-09-13T03:29:53;100352.59;;;27.76;43.56
39275;BME280;24980;48.874;2.332;2022-09-13T03:34:56;100359.03;;;27.75;43.57
39275;BME280;24980;48.874;2.332;2022-09-13T03:39:58;100366.08;;;27.74;43.57
39275;BME280;24980;48.874;2.332;2022-09-13T03:42:17;100363.38;;;27.73;43.57
39275;BME280;24980;48.874;2.332;2022-09-13T03:44:44;100363.98;;;27.73;43.57
39275;BME280;24980;48.874;2.332;2022-09-13T03:47:16;100364.88;;;27.72;43.56
39275;BME280;24980;48.874;2.332;2022-09-13T03:49:48;100371.59;;;27.71;43.58
39275;BME280;24980;48.874;2.332;2022-09-13T03:52:11;100371.44;;;27.70;43.58
39275;BME280;24980;48.874;2.332;2022-09-13T03:54:42;100372.74;;;27.69;43.57
39275;BME280;24980;48.874;2.332;2022-09-13T03:57:17;100369.55;;;27.68;43.58
39275;BME280;24980;48.874;2.332;2022-09-13T03:59:45;100364.09;;;27.68;43.60
39275;BME280;24980;48.874;2.332;2022-09-13T04:02:14;100361.12;;;27.68;43.60
39275;BME280;24980;48.874;2.332;2022-09-13T04:04:44;100357.10;;;27.67;43.61
39275;BME280;24980;48.874;2.332;2022-09-13T04:07:16;100359.83;;;27.67;43.61
39275;BME280;24980;48.874;2.332;2022-09-13T04:09:47;100363.44;;;27.66;43.62
39275;BME280;24980;48.874;2.332;2022-09-13T04:12:16;100361.59;;;27.66;43.63
39275;BME280;24980;48.874;2.332;2022-09-13T04:14:46;100364.42;;;27.65;43.64
39275;BME280;24980;48.874;2.332;2022-09-13T04:17:16;100367.41;;;27.65;43.62
39275;BME280;24980;48.874;2.332;2022-09-13T04:19:46;100362.88;;;27.64;43.64
39275;BME280;24980;48.874;2.332;2022-09-13T04:22:18;100353.27;;;27.63;43.64
39275;BME280;24980;48.874;2.332;2022-09-13T04:24:50;100349.30;;;27.63;43.63
39275;BME280;24980;48.874;2.332;2022-09-13T04:27:18;100354.59;;;27.62;43.65
39275;BME280;24980;48.874;2.332;2022-09-13T04:29:48;100359.88;;;27.62;43.66
39275;BME280;24980;48.874;2.332;2022-09-13T04:32:18;100373.22;;;27.61;43.69
39275;BME280;24980;48.874;2.332;2022-09-13T04:34:48;100382.42;;;27.61;43.74
39275;BME280;24980;48.874;2.332;2022-09-13T04:37:19;100375.13;;;27.61;43.79
39275;BME280;24980;48.874;2.332;2022-09-13T04:39:49;100363.94;;;27.61;43.84
39275;BME280;24980;48.874;2.332;2022-09-13T04:42:19;100361.80;;;27.61;43.87
39275;BME280;24980;48.874;2.332;2022-09-13T04:44:49;100368.12;;;27.61;43.89
39275;BME280;24980;48.874;2.332;2022-09-13T04:47:19;100374.44;;;27.60;43.89
39275;BME280;24980;48.874;2.332;2022-09-13T04:49:50;100365.68;;;27.60;43.88
39275;BME280;24980;48.874;2.332;2022-09-13T04:52:20;100367.16;;;27.59;43.87
39275;BME280;24980;48.874;2.332;2022-09-13T04:54:50;100382.06;;;27.59;43.86
39275;BME280;24980;48.874;2.332;2022-09-13T04:57:21;100381.22;;;27.57;43.83
39275;BME280;24980;48.874;2.332;2022-09-13T04:59:54;100380.88;;;27.57;43.83
39275;BME280;24980;48.874;2.332;2022-09-13T05:02:21;100382.35;;;27.56;43.82
39275;BME280;24980;48.874;2.332;2022-09-13T05:04:51;100383.92;;;27.55;43.82
39275;BME280;24980;48.874;2.332;2022-09-13T05:07:22;100382.70;;;27.55;43.81
39275;BME280;24980;48.874;2.332;2022-09-13T05:09:52;100377.77;;;27.55;43.81
39275;BME280;24980;48.874;2.332;2022-09-13T05:12:22;100370.50;;;27.53;43.81
39275;BME280;24980;48.874;2.332;2022-09-13T05:14:53;100361.32;;;27.53;43.81
39275;BME280;24980;48.874;2.332;2022-09-13T05:17:23;100366.88;;;27.52;43.83
39275;BME280;24980;48.874;2.332;2022-09-13T05:19:53;100382.27;;;27.51;43.86
39275;BME280;24980;48.874;2.332;2022-09-13T05:22:23;100391.21;;;27.51;43.90
39275;BME280;24980;48.874;2.332;2022-09-13T05:24:54;100395.55;;;27.51;43.93
39275;BME280;24980;48.874;2.332;2022-09-13T05:27:24;100399.48;;;27.50;43.95
39275;BME280;24980;48.874;2.332;2022-09-13T05:29:58;100388.36;;;27.49;43.96
39275;BME280;24980;48.874;2.332;2022-09-13T05:32:27;100378.31;;;27.49;43.97
39275;BME280;24980;48.874;2.332;2022-09-13T05:34:55;100380.53;;;27.49;43.96
39275;BME280;24980;48.874;2.332;2022-09-13T05:37:25;100373.80;;;27.48;43.98
39275;BME280;24980;48.874;2.332;2022-09-13T05:39:56;100365.05;;;27.47;43.98
39275;BME280;24980;48.874;2.332;2022-09-13T05:42:26;100370.08;;;27.47;43.97
39275;BME280;24980;48.874;2.332;2022-09-13T05:44:56;100379.58;;;27.46;43.97
39275;BME280;24980;48.874;2.332;2022-09-13T05:47:26;100389.16;;;27.45;43.96
39275;BME280;24980;48.874;2.332;2022-09-13T05:49:56;100395.56;;;27.44;43.95
39275;BME280;24980;48.874;2.332;2022-09-13T05:52:26;100387.69;;;27.43;43.93
39275;BME280;24980;48.874;2.332;2022-09-13T05:54:57;100385.90;;;27.42;43.92
39275;BME280;24980;48.874;2.332;2022-09-13T05:57:27;100386.05;;;27.42;43.91
39275;BME280;24980;48.874;2.332;2022-09-13T05:59:58;100382.59;;;27.40;43.90
39275;BME280;24980;48.874;2.332;2022-09-13T06:02:31;100381.94;;;27.40;43.89
39275;BME280;24980;48.874;2.332;2022-09-13T06:04:59;100374.98;;;27.39;43.88
39275;BME280;24980;48.874;2.332;2022-09-13T06:07:29;100374.11;;;27.38;43.87
39275;BME280;24980;48.874;2.332;2022-09-13T06:09:59;100374.90;;;27.37;43.88
39275;BME280;24980;48.874;2.332;2022-09-13T06:12:29;100379.95;;;27.37;43.88
39275;BME280;24980;48.874;2.332;2022-09-13T06:15:00;100374.27;;;27.36;43.87
39275;BME280;24980;48.874;2.332;2022-09-13T06:17:30;100365.39;;;27.35;43.88
39275;BME280;24980;48.874;2.332;2022-09-13T06:20:00;100362.19;;;27.36;43.88
39275;BME280;24980;48.874;2.332;2022-09-13T06:22:30;100355.10;;;27.35;43.90
39275;BME280;24980;48.874;2.332;2022-09-13T06:25:01;100345.83;;;27.35;43.92
39275;BME280;24980;48.874;2.332;2022-09-13T06:27:31;100344.73;;;27.34;43.95
39275;BME280;24980;48.874;2.332;2022-09-13T06:30:01;100347.06;;;27.34;43.96
39275;BME280;24980;48.874;2.332;2022-09-13T06:32:31;100342.84;;;27.33;43.98
39275;BME280;24980;48.874;2.332;2022-09-13T06:35:02;100341.56;;;27.31;44.00
39275;BME280;24980;48.874;2.332;2022-09-13T06:37:34;100337.41;;;27.30;44.02
39275;BME280;24980;48.874;2.332;2022-09-13T06:40:02;100333.15;;;27.29;44.07
39275;BME280;24980;48.874;2.332;2022-09-13T06:42:34;100330.05;;;27.28;44.11
39275;BME280;24980;48.874;2.332;2022-09-13T06:45:04;100323.50;;;27.28;44.16
39275;BME280;24980;48.874;2.332;2022-09-13T06:47:34;100317.19;;;27.28;44.23
39275;BME280;24980;48.874;2.332;2022-09-13T06:50:07;100312.80;;;27.27;44.27
39275;BME280;24980;48.874;2.332;2022-09-13T06:52:35;100306.42;;;27.27;44.31
39275;BME280;24980;48.874;2.332;2022-09-13T06:55:05;100298.41;;;27.27;44.34
39275;BME280;24980;48.874;2.332;2022-09-13T06:57:35;100295.44;;;27.27;44.37
39275;BME280;24980;48.874;2.332;2022-09-13T07:00:09;100286.95;;;27.27;44.41
39275;BME280;24980;48.874;2.332;2022-09-13T07:02:36;100283.19;;;27.27;44.44
39275;BME280;24980;48.874;2.332;2022-09-13T07:05:06;100277.14;;;27.27;44.46
39275;BME280;24980;48.874;2.332;2022-09-13T07:07:37;100272.75;;;27.26;44.46
39275;BME280;24980;48.874;2.332;2022-09-13T07:10:08;100273.42;;;27.26;44.45
39275;BME280;24980;48.874;2.332;2022-09-13T07:12:39;100269.58;;;27.25;44.43
39275;BME280;24980;48.874;2.332;2022-09-13T07:15:08;100271.34;;;27.24;44.40
39275;BME280;24980;48.874;2.332;2022-09-13T07:17:41;100270.33;;;27.22;44.39
39275;BME280;24980;48.874;2.332;2022-09-13T07:20:09;100267.22;;;27.21;44.38
39275;BME280;24980;48.874;2.332;2022-09-13T07:22:39;100264.19;;;27.20;44.35
39275;BME280;24980;48.874;2.332;2022-09-13T07:25:10;100263.41;;;27.19;44.35
39275;BME280;24980;48.874;2.332;2022-09-13T07:27:40;100269.20;;;27.18;44.34
39275;BME280;24980;48.874;2.332;2022-09-13T07:30:10;100269.11;;;27.18;44.35
39275;BME280;24980;48.874;2.332;2022-09-13T07:32:40;100269.09;;;27.19;44.35
39275;BME280;24980;48.874;2.332;2022-09-13T07:35:18;100267.98;;;27.19;44.33
39275;BME280;24980;48.874;2.332;2022-09-13T07:37:42;100275.81;;;27.19;44.38
39275;BME280;24980;48.874;2.332;2022-09-13T07:42:42;100276.58;;;27.19;44.47
39275;BME280;24980;48.874;2.332;2022-09-13T07:45:12;100278.20;;;27.19;44.48
39275;BME280;24980;48.874;2.332;2022-09-13T07:47:42;100276.19;;;27.18;44.48
39275;BME280;24980;48.874;2.332;2022-09-13T07:50:12;100279.85;;;27.18;44.46
39275;BME280;24980;48.874;2.332;2022-09-13T07:52:42;100281.83;;;27.17;44.48
39275;BME280;24980;48.874;2.332;2022-09-13T07:55:15;100283.44;;;27.17;44.48
39275;BME280;24980;48.874;2.332;2022-09-13T07:57:47;100281.27;;;27.16;44.45
39275;BME280;24980;48.874;2.332;2022-09-13T08:00:17;100287.34;;;27.16;44.44
39275;BME280;24980;48.874;2.332;2022-09-13T08:02:46;100284.15;;;27.15;44.46
39275;BME280;24980;48.874;2.332;2022-09-13T08:05:18;100285.02;;;27.15;44.46
39275;BME280;24980;48.874;2.332;2022-09-13T08:07:46;100285.72;;;27.14;44.50
39275;BME280;24980;48.874;2.332;2022-09-13T08:10:17;100282.25;;;27.13;44.49
39275;BME280;24980;48.874;2.332;2022-09-13T08:12:52;100285.22;;;27.14;44.51
39275;BME280;24980;48.874;2.332;2022-09-13T08:15:27;100281.73;;;27.13;44.55
39275;BME280;24980;48.874;2.332;2022-09-13T08:20:18;100278.84;;;27.13;44.68
39275;BME280;24980;48.874;2.332;2022-09-13T08:22:49;100283.33;;;27.14;44.73
39275;BME280;24980;48.874;2.332;2022-09-13T08:25:27;100282.23;;;27.14;44.75
39275;BME280;24980;48.874;2.332;2022-09-13T08:27:51;100278.64;;;27.14;44.78
39275;BME280;24980;48.874;2.332;2022-09-13T08:30:21;100272.95;;;27.14;44.78
39275;BME280;24980;48.874;2.332;2022-09-13T08:32:51;100269.23;;;27.14;44.75
39275;BME280;24980;48.874;2.332;2022-09-13T08:35:21;100269.55;;;27.14;44.72
39275;BME280;24980;48.874;2.332;2022-09-13T08:37:51;100274.14;;;27.14;44.70
39275;BME280;24980;48.874;2.332;2022-09-13T08:40:26;100272.02;;;27.14;44.68
39275;BME280;24980;48.874;2.332;2022-09-13T08:45:22;100282.39;;;27.14;44.68
39275;BME280;24980;48.874;2.332;2022-09-13T08:47:58;100283.83;;;27.15;44.69
39275;BME280;24980;48.874;2.332;2022-09-13T08:50:29;100294.83;;;27.14;44.70
39275;BME280;24980;48.874;2.332;2022-09-13T08:53:01;100300.61;;;27.14;44.72
39275;BME280;24980;48.874;2.332;2022-09-13T08:58:11;100309.61;;;27.14;44.75
39275;BME280;24980;48.874;2.332;2022-09-13T09:00:33;100312.59;;;27.14;44.77
39275;BME280;24980;48.874;2.332;2022-09-13T09:03:11;100311.99;;;27.14;44.78
39275;BME280;24980;48.874;2.332;2022-09-13T09:05:32;100313.78;;;27.14;44.80
39275;BME280;24980;48.874;2.332;2022-09-13T09:08:01;100314.48;;;27.14;44.82
39275;BME280;24980;48.874;2.332;2022-09-13T09:10:43;100312.92;;;27.13;44.83
39275;BME280;24980;48.874;2.332;2022-09-13T09:13:03;100313.27;;;27.13;44.84
39275;BME280;24980;48.874;2.332;2022-09-13T09:15:32;100314.97;;;27.13;44.86
39275;BME280;24980;48.874;2.332;2022-09-13T09:18:03;100324.19;;;27.12;44.89
39275;BME280;24980;48.874;2.332;2022-09-13T09:20:40;100348.29;;;27.11;44.93
39275;BME280;24980;48.874;2.332;2022-09-13T09:23:03;100357.12;;;27.12;44.97
39275;BME280;24980;48.874;2.332;2022-09-13T09:25:31;100342.15;;;27.12;45.05
39275;BME280;24980;48.874;2.332;2022-09-13T09:28:13;100323.44;;;27.12;45.12
39275;BME280;24980;48.874;2.332;2022-09-13T09:30:58;100329.80;;;27.12;45.14
39275;BME280;24980;48.874;2.332;2022-09-13T09:40:36;100337.89;;;27.12;45.14
39275;BME280;24980;48.874;2.332;2022-09-13T09:43:16;100338.06;;;27.12;45.13
39275;BME280;24980;48.874;2.332;2022-09-13T09:45:38;100343.11;;;27.11;45.14
39275;BME280;24980;48.874;2.332;2022-09-13T09:48:13;100344.30;;;27.11;45.14
39275;BME280;24980;48.874;2.332;2022-09-13T09:50:42;100348.11;;;27.10;45.14
39275;BME280;24980;48.874;2.332;2022-09-13T09:53:11;100351.00;;;27.10;45.15
39275;BME280;24980;48.874;2.332;2022-09-13T09:55:49;100345.84;;;27.09;45.15
39275;BME280;24980;48.874;2.332;2022-09-13T09:58:08;100339.90;;;27.09;45.16
39275;BME280;24980;48.874;2.332;2022-09-13T10:00:49;100342.03;;;27.08;45.17
39275;BME280;24980;48.874;2.332;2022-09-13T10:03:15;100351.91;;;27.08;45.17
39275;BME280;24980;48.874;2.332;2022-09-13T10:05:39;100350.73;;;27.08;45.20
39275;BME280;24980;48.874;2.332;2022-09-13T10:08:30;100352.95;;;27.07;45.20
39275;BME280;24980;48.874;2.332;2022-09-13T10:10:51;100357.97;;;27.08;45.21
39275;BME280;24980;48.874;2.332;2022-09-13T10:13:19;100360.02;;;27.07;45.22
39275;BME280;24980;48.874;2.332;2022-09-13T10:15:55;100362.16;;;27.07;45.24
39275;BME280;24980;48.874;2.332;2022-09-13T10:18:15;100360.28;;;27.07;45.26
39275;BME280;24980;48.874;2.332;2022-09-13T10:21:02;100356.02;;;27.07;45.28
39275;BME280;24980;48.874;2.332;2022-09-13T10:25:56;100352.45;;;27.07;45.33
39275;BME280;24980;48.874;2.332;2022-09-13T10:28:18;100351.33;;;27.08;45.34
39275;BME280;24980;48.874;2.332;2022-09-13T10:30:48;100354.23;;;27.07;45.37
39275;BME280;24980;48.874;2.332;2022-09-13T10:33:39;100357.23;;;27.07;45.41
39275;BME280;24980;48.874;2.332;2022-09-13T10:35:48;100359.83;;;27.06;45.43
39275;BME280;24980;48.874;2.332;2022-09-13T10:38:31;100357.89;;;27.07;45.44
39275;BME280;24980;48.874;2.332;2022-09-13T10:40:47;100353.53;;;27.06;45.45
39275;BME280;24980;48.874;2.332;2022-09-13T10:43:18;100350.41;;;27.07;45.46
39275;BME280;24980;48.874;2.332;2022-09-13T10:45:48;100346.48;;;27.06;45.47
39275;BME280;24980;48.874;2.332;2022-09-13T10:48:19;100345.29;;;27.06;45.50
39275;BME280;24980;48.874;2.332;2022-09-13T10:51:19;100338.58;;;27.06;45.51
39275;BME280;24980;48.874;2.332;2022-09-13T10:53:34;100340.28;;;27.06;45.51
39275;BME280;24980;48.874;2.332;2022-09-13T10:55:53;100341.89;;;27.06;45.52
39275;BME280;24980;48.874;2.332;2022-09-13T10:58:20;100337.20;;;27.06;45.52
39275;BME280;24980;48.874;2.332;2022-09-13T11:06:10;100322.32;;;27.06;45.52
39275;BME280;24980;48.874;2.332;2022-09-13T11:08:55;100316.14;;;27.05;45.54
39275;BME280;24980;48.874;2.332;2022-09-13T11:11:18;100310.14;;;27.06;45.54
39275;BME280;24980;48.874;2.332;2022-09-13T11:13:45;100309.75;;;27.06;45.54
39275;BME280;24980;48.874;2.332;2022-09-13T11:16:19;100312.20;;;27.06;45.55
39275;BME280;24980;48.874;2.332;2022-09-13T11:23:50;100312.97;;;27.07;45.60
39275;BME280;24980;48.874;2.332;2022-09-13T11:28:52;100313.98;;;27.08;45.63
39275;BME280;24980;48.874;2.332;2022-09-13T11:36:10;100309.12;;;27.08;45.64
39275;BME280;24980;48.874;2.332;2022-09-13T11:38:40;100305.95;;;27.09;45.65
39275;BME280;24980;48.874;2.332;2022-09-13T11:43:58;100302.81;;;27.09;45.64
39275;BME280;24980;48.874;2.332;2022-09-13T11:53:55;100304.48;;;27.10;45.78
39275;BME280;24980;48.874;2.332;2022-09-13T11:56:07;100296.34;;;27.10;45.79
39275;BME280;24980;48.874;2.332;2022-09-13T11:58:38;100289.34;;;27.10;45.78
39275;BME280;24980;48.874;2.332;2022-09-13T12:01:06;100285.59;;;27.10;45.77
39275;BME280;24980;48.874;2.332;2022-09-13T12:04:04;100280.92;;;27.09;45.77
39275;BME280;24980;48.874;2.332;2022-09-13T12:06:29;100275.55;;;27.10;45.75
39275;BME280;24980;48.874;2.332;2022-09-13T12:08:41;100277.44;;;27.09;45.72
39275;BME280;24980;48.874;2.332;2022-09-13T12:11:14;100281.14;;;27.08;45.71
39275;BME280;24980;48.874;2.332;2022-09-13T12:13:46;100282.72;;;27.09;45.70
39275;BME280;24980;48.874;2.332;2022-09-13T12:16:08;100281.95;;;27.09;45.67
39275;BME280;24980;48.874;2.332;2022-09-13T12:18:40;100287.08;;;27.08;45.67
39275;BME280;24980;48.874;2.332;2022-09-13T12:21:14;100288.61;;;27.08;45.66
39275;BME280;24980;48.874;2.332;2022-09-13T12:23:46;100290.66;;;27.08;45.63
39275;BME280;24980;48.874;2.332;2022-09-13T12:26:15;100287.74;;;27.09;45.62
39275;BME280;24980;48.874;2.332;2022-09-13T12:28:47;100286.80;;;27.09;45.61
39275;BME280;24980;48.874;2.332;2022-09-13T12:31:16;100284.23;;;27.10;45.61
39275;BME280;24980;48.874;2.332;2022-09-13T12:33:40;100288.92;;;27.10;45.61
39275;BME280;24980;48.874;2.332;2022-09-13T12:41:40;100258.56;;;27.09;45.59
39275;BME280;24980;48.874;2.332;2022-09-13T12:44:09;100254.72;;;27.09;45.58
39275;BME280;24980;48.874;2.332;2022-09-13T13:01:23;100223.25;;;27.09;45.52
39275;BME280;24980;48.874;2.332;2022-09-13T13:03:54;100214.34;;;27.09;45.52
39275;BME280;24980;48.874;2.332;2022-09-13T13:06:29;100207.84;;;27.10;45.51
39275;BME280;24980;48.874;2.332;2022-09-13T13:08:56;100204.11;;;27.09;45.51
39275;BME280;24980;48.874;2.332;2022-09-13T13:11:19;100201.22;;;27.09;45.51
39275;BME280;24980;48.874;2.332;2022-09-13T13:14:00;100205.89;;;27.09;45.51
39275;BME280;24980;48.874;2.332;2022-09-13T13:16:23;100206.91;;;27.09;45.51
39275;BME280;24980;48.874;2.332;2022-09-13T13:18:51;100199.97;;;27.10;45.51
39275;BME280;24980;48.874;2.332;2022-09-13T13:21:25;100194.81;;;27.10;45.50
39275;BME280;24980;48.874;2.332;2022-09-13T13:29:10;100173.94;;;27.12;45.51
39275;BME280;24980;48.874;2.332;2022-09-13T13:36:30;100189.19;;;27.16;45.55
39275;BME280;24980;48.874;2.332;2022-09-13T13:38:54;100189.77;;;27.16;45.57
39275;BME280;24980;48.874;2.332;2022-09-13T13:41:37;100197.72;;;27.16;45.58
39275;BME280;24980;48.874;2.332;2022-09-13T13:43:54;100199.06;;;27.17;45.59
39275;BME280;24980;48.874;2.332;2022-09-13T13:46:29;100201.09;;;27.17;45.60
39275;BME280;24980;48.874;2.332;2022-09-13T13:48:55;100195.32;;;27.17;45.62
39275;BME280;24980;48.874;2.332;2022-09-13T13:51:30;100191.31;;;27.17;45.61
39275;BME280;24980;48.874;2.332;2022-09-13T13:53:57;100190.02;;;27.18;45.61
39275;BME280;24980;48.874;2.332;2022-09-13T13:56:51;100184.66;;;27.18;45.62
39275;BME280;24980;48.874;2.332;2022-09-13T13:59:02;100177.88;;;27.17;45.62
39275;BME280;24980;48.874;2.332;2022-09-13T14:01:30;100177.76;;;27.18;45.62
39275;BME280;24980;48.874;2.332;2022-09-13T14:06:50;100165.59;;;27.18;45.63
39275;BME280;24980;48.874;2.332;2022-09-13T14:09:05;100157.68;;;27.18;45.64
39275;BME280;24980;48.874;2.332;2022-09-13T14:14:24;100160.97;;;27.19;45.71
39275;BME280;24980;48.874;2.332;2022-09-13T14:21:30;100151.83;;;27.21;45.84
39275;BME280;24980;48.874;2.332;2022-09-13T14:24:21;100150.09;;;27.22;45.86
39275;BME280;24980;48.874;2.332;2022-09-13T14:29:10;100152.50;;;27.23;45.88
39275;BME280;24980;48.874;2.332;2022-09-13T14:31:32;100150.00;;;27.24;45.88
39275;BME280;24980;48.874;2.332;2022-09-13T14:34:04;100151.09;;;27.24;45.85
39275;BME280;24980;48.874;2.332;2022-09-13T14:36:32;100150.08;;;27.24;45.84
39275;BME280;24980;48.874;2.332;2022-09-13T14:39:02;100148.34;;;27.25;45.82
39275;BME280;24980;48.874;2.332;2022-09-13T14:41:35;100150.55;;;27.25;45.83
39275;BME280;24980;48.874;2.332;2022-09-13T14:44:18;100153.35;;;27.25;45.82
39275;BME280;24980;48.874;2.332;2022-09-13T14:46:38;100152.52;;;27.25;45.81
39275;BME280;24980;48.874;2.332;2022-09-13T14:49:07;100154.11;;;27.26;45.82
39275;BME280;24980;48.874;2.332;2022-09-13T14:51:48;100151.46;;;27.26;45.82
39275;BME280;24980;48.874;2.332;2022-09-13T14:54:19;100154.55;;;27.27;45.82
39275;BME280;24980;48.874;2.332;2022-09-13T14:56:46;100155.08;;;27.26;45.82
39275;BME280;24980;48.874;2.332;2022-09-13T14:59:17;100154.72;;;27.27;45.81
39275;BME280;24980;48.874;2.332;2022-09-13T15:01:37;100154.03;;;27.27;45.80
39275;BME280;24980;48.874;2.332;2022-09-13T15:04:07;100153.79;;;27.26;45.79
39275;BME280;24980;48.874;2.332;2022-09-13T15:06:38;100153.02;;;27.27;45.80
39275;BME280;24980;48.874;2.332;2022-09-13T15:09:15;100153.27;;;27.27;45.79
39275;BME280;24980;48.874;2.332;2022-09-13T15:11:41;100156.86;;;27.26;45.78
39275;BME280;24980;48.874;2.332;2022-09-13T15:14:29;100159.58;;;27.26;45.79